• Join FlightAware (Why Join?)
  • Login
  • US Flag 
10:39PM EST


 

Airport Tracker/Info


-or-


 

Live Flight TrackerFlight Track Log ✈ N778AN ✈ 03-May-2013 ✈ EGLL / LHR - KLAX

Flight Track Log - Related Links

Times and Time Zones

All times are in EDT time to prevent confusion due to time zone crossing. See the N778AN flight status page for this flight to view local times or setup timezone preferences in your user account.

Time Position Orientation Groundspeed Altitude Reporting Facility
EDT Latitude Longitude Course Direction KTS MPH feet Rate Location/Type
09:18AM 51.4770 -0.4900 269° West 179 206 500  Level FlightAware
09:18AM 51.4770 -0.5080 270° West 181 208 1,000 2,640 Climbing FlightAware
09:18AM 51.4725 -0.5434 258° West 173 199 2,100 2,400 Climbing FlightAware ADS-B
09:18AM 51.4718 -0.5484 257° West 176 203 2,200 780 Climbing FlightAware ADS-B
09:18AM 51.4699 -0.5630 258° West 185 213 2,300 1,440 Climbing FlightAware ADS-B
09:19AM 51.4674 -0.5821 258° West 182 209 2,800 1,980 Climbing FlightAware ADS-B
09:19AM 51.4648 -0.5998 257° West 187 215 3,200 1,200 Climbing FlightAware ADS-B
09:19AM 51.4626 -0.6152 257° West 195 224 3,300 720 Climbing FlightAware ADS-B
09:19AM 51.4598 -0.6345 257° West 208 239 3,500 960 Climbing FlightAware ADS-B
09:19AM 51.4578 -0.6524 260° West 218 251 3,700 1,260 Climbing FlightAware ADS-B
09:20AM 51.4567 -0.6641 261° West 222 255 3,900 1,500 Climbing FlightAware ADS-B
09:20AM 51.4558 -0.6776 264° West 231 266 4,100 1,200 Climbing FlightAware ADS-B
09:20AM 51.4551 -0.6992 267° West 244 281 4,300 1,200 Climbing FlightAware ADS-B
09:20AM 51.4552 -0.7056 271° West 248 285 4,400 1,680 Climbing FlightAware ADS-B
09:20AM 51.4555 -0.7131 274° West 251 289 4,500 1,680 Climbing FlightAware ADS-B
09:20AM 51.4560 -0.7189 278° West 253 291 4,600 1,980 Climbing FlightAware ADS-B
09:20AM 51.4582 -0.7343 283° West 257 296 4,900 2,160 Climbing FlightAware ADS-B
09:20AM 51.4627 -0.7577 287° West 262 302 5,400 2,520 Climbing FlightAware ADS-B
09:21AM 51.4690 -0.7862 290° West 265 305 6,100 2,760 Climbing FlightAware ADS-B
09:21AM 51.4756 -0.8143 291° West 265 305 6,800 2,700 Climbing FlightAware ADS-B
09:21AM 51.4822 -0.8424 291° West 268 308 7,500 2,280 Climbing FlightAware ADS-B
09:21AM 51.4886 -0.8711 290° West 273 314 8,000 2,100 Climbing FlightAware ADS-B
09:22AM 51.4951 -0.9017 289° West 279 321 8,600 2,280 Climbing FlightAware ADS-B
09:22AM 51.5013 -0.9313 289° West 280 322 9,200 2,460 Climbing FlightAware ADS-B
09:22AM 51.5136 -0.9924 288° West 286 329 10,500 120 Climbing FlightAware ADS-B
09:23AM 51.5203 -1.0244 288° West 314 361 9,300 1,320 Descending FlightAware UK
09:23AM 51.5271 -1.0578 288° West 310 357 11,200 3,480 Climbing FlightAware ADS-B
09:24AM 51.5408 -1.1260 288° West 330 380 12,000 1,680 Climbing FlightAware ADS-B
09:24AM 51.5557 -1.1992 288° West 349 402 12,900 1,620 Climbing FlightAware ADS-B
09:25AM 51.5711 -1.2754 288° West 366 421 13,700 1,620 Climbing FlightAware ADS-B
09:25AM 51.5901 -1.3690 288° West 380 437 14,700 -240 Climbing FlightAware ADS-B
09:25AM 51.6011 -1.4231 288° West 398 458 13,500 780 Descending FlightAware UK
09:26AM 51.6066 -1.4508 288° West 385 443 15,100 3,780 Climbing FlightAware ADS-B
09:26AM 51.6235 -1.5344 288° West 388 447 16,100 1,980 Climbing FlightAware ADS-B
09:27AM 51.6405 -1.6192 288° West 395 455 17,200 2,040 Climbing FlightAware ADS-B
09:27AM 51.6578 -1.7047 288° West 403 464 18,200 600 Climbing FlightAware ADS-B
09:27AM 51.6683 -1.7557 288° West 410 472 17,700 3,540 Descending FlightAware UK
09:28AM 51.6762 -1.7944 288° West 386 444 20,100 2,640 Climbing FlightAware ADS-B
09:28AM 51.6884 -1.8533 288° West 392 451 19,300 2,700 Descending FlightAware UK
09:28AM 51.6934 -1.8782 288° West 380 437 21,500 4,740 Climbing FlightAware ADS-B
09:29AM 51.7094 -1.9595 288° West 384 442 22,400 1,800 Climbing FlightAware ADS-B
09:29AM 51.7252 -2.0419 287° West 388 447 23,300 -180 Climbing FlightAware ADS-B
09:29AM 51.7329 -2.0819 287° West 400 460 22,300 2,100 Descending FlightAware UK
09:30AM 51.7411 -2.1278 287° West 387 445 24,400 1,860 Climbing FlightAware ADS-B
09:30AM 51.7510 -2.1811 287° West 402 463 23,400 1,560 Descending FlightAware UK
09:30AM 51.7564 -2.2114 287° West 391 450 25,200 780 Climbing FlightAware ADS-B
09:31AM 51.7663 -2.2647 287° West 416 479 23,800 600 Descending FlightAware UK
09:31AM 51.7720 -2.2972 287° West 407 468 25,500 780 Climbing FlightAware ADS-B
09:31AM 51.7823 -2.3530 287° West 430 495 24,200 -1,440 Descending FlightAware UK
09:31AM 51.7955 -2.4241 287° West 442 509 24,500 4,380 Climbing FlightAware UK
09:31AM 51.7950 -2.4230 287° West 422 486 26,100 660 Climbing FlightAware
09:32AM 51.8162 -2.5354 287° West 456 525 24,900 660 Descending FlightAware UK
09:32AM 51.8210 -2.5630 287° West 442 509 26,600 960 Climbing FlightAware
09:33AM 51.8340 -2.6308 287° West 468 539 25,400 -1,320 Descending FlightAware UK
09:33AM 51.8446 -2.6881 287° West 472 543 25,800 3,000 Climbing FlightAware UK
09:33AM 51.8620 -2.7810 287° West 453 521 28,000 1,200 Climbing FlightAware
09:34AM 51.8736 -2.8429 287° West 476 548 26,800 1,200 Descending FlightAware UK
09:34AM 51.8850 -2.9020 287° West 456 525 28,700 1,140 Climbing FlightAware
09:34AM 51.8988 -2.9796 287° West 482 555 27,600 -960 Descending FlightAware UK
09:35AM 51.9052 -3.0628 277° West 484 557 28,000 4,260 Climbing FlightAware UK
09:35AM 51.9050 -3.0600 277° West 461 531 29,600 960 Climbing FlightAware
09:35AM 51.9126 -3.1862 277° West 490 564 28,600 1,020 Descending FlightAware UK
09:35AM 51.9140 -3.2080 277° West 466 536 30,300 3,000 Climbing FlightAware
09:36AM 51.9230 -3.3440 276° West 468 539 31,000 -720 Climbing FlightAware
09:37AM 51.9361 -3.4537 276° West 482 555 29,500  Descending FlightAware UK
09:37AM 51.9410 -3.4930 276° West 451 519 31,000  Climbing FlightAware
09:37AM 51.9505 -3.5725 276° West 474 545 29,500  Descending FlightAware UK
09:38AM 51.9560 -3.6240 276° West 449 517 31,000  Climbing FlightAware
09:38AM 51.9666 -3.7112 276° West 476 548 29,500 -2,220 Descending FlightAware UK
09:38AM 51.9735 -3.7708 281° West 478 550 29,500 4,080 Level FlightAware UK
09:38AM 51.9740 -3.7740 281° West 451 519 31,000  Climbing FlightAware
09:39AM 51.9826 -3.8504 281° West 480 552 29,500  Descending FlightAware UK
09:39AM 51.9900 -3.9140 281° West 450 518 31,000 420 Climbing FlightAware
09:39AM 51.9987 -3.9891 281° West 482 555 29,800 1,200 Descending FlightAware UK
09:40AM 52.0050 -4.0470 281° West 447 514 31,800 1,680 Climbing FlightAware
09:40AM 52.0146 -4.1269 281° West 476 548 31,000 -600 Descending FlightAware UK
09:40AM 52.0213 -4.1850 281° West 472 543 31,400 5,160 Climbing FlightAware UK
09:40AM 52.0220 -4.1910 281° West 440 506 32,900 6,720 Climbing FlightAware
09:41AM 52.0270 -4.2344 281° West 439 505 33,200 -1,500 Climbing FlightAware ADS-B
09:41AM 52.0347 -4.3016 281° West 474 545 32,100 -1,140 Descending FlightAware UK
09:41AM 52.0430 -4.3785 280° West 474 545 32,400 420 Climbing FlightAware UK
09:42AM 52.0501 -4.4358 281° West 472 543 32,400 3,300 Level FlightAware UK
09:42AM 52.0540 -4.4590 281° West 433 498 34,000  Climbing FlightAware
09:42AM 52.0637 -4.5304 281° West 472 543 32,400 -2,640 Descending FlightAware UK
09:42AM 52.0714 -4.5875 282° West 472 543 32,400 4,560 Level FlightAware UK
09:42AM 52.0710 -4.5870 282° West 432 497 34,000 300 Climbing FlightAware
09:43AM 52.0789 -4.6446 282° West 472 543 32,500 -2,760 Descending FlightAware UK
09:43AM 52.0864 -4.7017 282° West 470 541 32,500 3,600 Level FlightAware UK
09:43AM 52.0880 -4.7180 282° West 433 498 34,000  Climbing FlightAware
09:43AM 52.0960 -4.7780 282° West 472 543 32,500 -2,580 Descending FlightAware UK
09:44AM 52.1033 -4.8353 282° West 472 543 32,500 3,180 Level FlightAware UK
09:44AM 52.1060 -4.8580 282° West 432 497 34,000  Climbing FlightAware
09:44AM 52.1152 -4.9301 282° West 472 543 32,500 -2,400 Descending FlightAware UK
09:45AM 52.1223 -4.9873 281° West 472 543 32,500 4,500 Level FlightAware UK
09:45AM 52.1220 -4.9860 281° West 433 498 34,000  Climbing FlightAware
09:45AM 52.1294 -5.0447 281° West 472 543 32,500 -2,700 Descending FlightAware UK
09:45AM 52.1365 -5.1021 281° West 472 543 32,500 3,720 Level FlightAware UK
09:45AM 52.1380 -5.1120 281° West 433 498 34,000  Climbing FlightAware
09:46AM 52.1475 -5.1781 281° West 472 543 32,500 -2,520 Descending FlightAware UK
09:46AM 52.1566 -5.2350 285° West 474 545 32,500 3,300 Level FlightAware UK
09:46AM 52.1610 -5.2590 285° West 435 501 34,000  Climbing FlightAware
09:46AM 52.1700 -5.3100 285° West 474 545 32,500 -2,760 Descending FlightAware UK
09:47AM 52.1827 -5.3652 291° West 474 545 32,500 3,600 Level FlightAware UK
09:47AM 52.1870 -5.3820 291° West 434 499 34,000  Climbing FlightAware
09:47AM 52.1996 -5.4388 291° West 474 545 32,500 -2,580 Descending FlightAware UK
09:47AM 52.2124 -5.4938 291° West 474 545 32,500 3,180 Level FlightAware UK
09:47AM 52.2180 -5.5180 291° West 434 499 34,000 -240 Climbing FlightAware
09:48AM 52.2341 -5.5855 291° West 472 543 32,400 -2,580 Descending FlightAware UK
09:48AM 52.2471 -5.6404 291° West 474 545 32,400 4,800 Level FlightAware UK
09:48AM 52.2470 -5.6400 291° West 435 501 34,000 300 Climbing FlightAware
09:48AM 52.2602 -5.6954 291° West 472 543 32,500 -2,880 Descending FlightAware UK
09:49AM 52.2732 -5.7504 291° West 472 543 32,400 3,720 Descending FlightAware UK
09:49AM 52.2760 -5.7630 291° West 434 499 34,000  Climbing FlightAware
09:49AM 52.2904 -5.8238 291° West 474 545 32,400 -2,520 Descending FlightAware UK
09:49AM 52.3034 -5.8788 291° West 474 545 32,500 3,540 Climbing FlightAware UK
09:49AM 52.3080 -5.9010 291° West 435 501 34,000 -300 Climbing FlightAware
09:50AM 52.3206 -5.9524 291° West 474 545 32,400 -2,760 Descending FlightAware UK
09:50AM 52.3333 -6.0076 291° West 476 548 32,500 3,840 Climbing FlightAware UK
09:50AM 52.3370 -6.0230 291° West 436 502 34,000 -300 Climbing FlightAware
09:50AM 52.3501 -6.0807 291° West 476 548 32,400 -2,760 Descending FlightAware UK
09:51AM 52.3629 -6.1361 291° West 476 548 32,400 3,420 Level FlightAware UK
09:51AM 52.3680 -6.1570 291° West 435 501 34,000 180 Climbing FlightAware
09:51AM 52.3841 -6.2284 291° West 476 548 32,500 -2,400 Descending FlightAware UK
09:52AM 52.3968 -6.2839 291° West 474 545 32,500 4,500 Level FlightAware UK
09:52AM 52.3960 -6.2820 291° West 436 502 34,000  Climbing FlightAware
09:52AM 52.4095 -6.3395 291° West 478 550 32,500 -2,700 Descending FlightAware UK
09:52AM 52.4223 -6.3950 291° West 476 548 32,500  Level FlightAware UK
09:52AM 52.4348 -6.4508 290° West 478 550 32,500 4,260 Level FlightAware UK
09:52AM 52.4350 -6.4530 290° West 437 503 34,000  Climbing FlightAware
09:53AM 52.4475 -6.5066 290° West 478 550 32,500 -2,760 Descending FlightAware UK
09:53AM 52.4601 -6.5624 290° West 478 550 32,500 3,000 Level FlightAware UK
09:53AM 52.4660 -6.5890 290° West 436 502 34,000  Climbing FlightAware
09:54AM 52.4810 -6.6555 290° West 478 550 32,500 -2,520 Descending FlightAware UK
09:54AM 52.4935 -6.7114 290° West 478 550 32,500 4,080 Level FlightAware UK
09:54AM 52.4960 -6.7210 290° West 437 503 34,000  Climbing FlightAware
09:54AM 52.5102 -6.7860 290° West 478 550 32,500 -2,400 Descending FlightAware UK
09:55AM 52.5227 -6.8419 290° West 476 548 32,500 4,500 Level FlightAware UK
09:55AM 52.5230 -6.8440 290° West 437 503 34,000  Climbing FlightAware
09:55AM 52.5352 -6.8978 290° West 476 548 32,500 -2,700 Descending FlightAware UK
09:55AM 52.5476 -6.9538 290° West 478 550 32,500 3,060 Level FlightAware UK
09:55AM 52.5540 -6.9810 290° West 437 503 34,000  Climbing FlightAware
09:56AM 52.5681 -7.0471 290° West 478 550 32,500 -2,460 Descending FlightAware UK
09:56AM 52.5804 -7.1031 290° West 476 548 32,500 4,260 Level FlightAware UK
09:56AM 52.5810 -7.1070 290° West 435 501 34,000  Climbing FlightAware
09:56AM 52.5927 -7.1591 290° West 478 550 32,500 -2,760 Descending FlightAware UK
09:57AM 52.6048 -7.2144 290° West 482 555 32,500 3,000 Level FlightAware UK
09:57AM 52.6100 -7.2380 290° West 435 501 34,000  Climbing FlightAware
09:57AM 52.6251 -7.3076 290° West 482 555 32,500 -2,520 Descending FlightAware UK
09:57AM 52.6373 -7.3634 290° West 478 550 32,500 4,080 Level FlightAware UK
09:57AM 52.6390 -7.3700 290° West 433 498 34,000  Climbing FlightAware
09:58AM 52.6536 -7.4377 290° West 480 552 32,500 -2,580 Descending FlightAware UK
09:58AM 52.6656 -7.4934 290° West 478 550 32,400 4,500 Descending FlightAware UK
09:58AM 52.6640 -7.4890 290° West 433 498 34,000 300 Climbing FlightAware
09:58AM 52.6776 -7.5492 290° West 480 552 32,500 -2,700 Descending FlightAware UK
09:59AM 52.6894 -7.6048 289° West 478 550 32,500 3,060 Level FlightAware UK
09:59AM 52.6950 -7.6310 289° West 431 496 34,000  Climbing FlightAware
09:59AM 52.7093 -7.6976 289° West 478 550 32,500 -2,460 Descending FlightAware UK
09:59AM 52.7211 -7.7532 289° West 480 552 32,500 4,260 Level FlightAware UK
09:59AM 52.7210 -7.7520 289° West 431 496 34,000  Climbing FlightAware
10:00AM 52.7330 -7.8089 289° West 478 550 32,500 -2,760 Descending FlightAware UK
10:00AM 52.7447 -7.8646 289° West 478 550 32,500 3,600 Level FlightAware UK
10:00AM 52.7480 -7.8820 289° West 430 495 34,000  Climbing FlightAware
10:00AM 52.7605 -7.9386 289° West 482 555 32,500 -2,760 Descending FlightAware UK
10:01AM 52.7722 -7.9940 289° West 480 552 32,400 2,700 Descending FlightAware UK
10:01AM 52.7790 -8.0270 289° West 425 489 34,000 180 Climbing FlightAware
10:01AM 52.7915 -8.0863 289° West 480 552 32,500 -2,760 Descending FlightAware UK
10:02AM 52.8030 -8.1415 289° West 480 552 32,500 3,600 Level FlightAware UK
10:02AM 52.8040 -8.1490 289° West 423 487 34,000  Climbing FlightAware
10:02AM 52.8183 -8.2151 289° West 480 552 32,500 -2,580 Descending FlightAware UK
10:02AM 52.8298 -8.2702 289° West 480 552 32,500 3,900 Level FlightAware UK
10:02AM 52.8300 -8.2730 289° West 423 487 34,000  Climbing FlightAware
10:03AM 52.8450 -8.3437 289° West 482 555 32,500 -2,460 Descending FlightAware UK
10:03AM 52.8564 -8.3990 289° West 482 555 32,500 4,260 Level FlightAware UK
10:03AM 52.8560 -8.3950 289° West 424 488 34,000  Climbing FlightAware
10:03AM 52.8677 -8.4538 289° West 482 555 32,500 -2,760 Descending FlightAware UK
10:04AM 52.8793 -8.5091 289° West 484 557 32,500 3,000 Level FlightAware UK
10:04AM 52.8840 -8.5360 289° West 425 489 34,000  Climbing FlightAware
10:04AM 52.8981 -8.6019 289° West 484 557 32,500 -2,520 Descending FlightAware UK
10:04AM 52.9094 -8.6575 289° West 482 555 32,500 4,080 Level FlightAware UK
10:04AM 52.9090 -8.6580 289° West 423 487 34,000  Climbing FlightAware
10:05AM 52.9245 -8.7317 289° West 482 555 32,500 -2,400 Descending FlightAware UK
10:05AM 52.9358 -8.7873 289° West 482 555 32,500 3,600 Level FlightAware UK
10:05AM 52.9350 -8.7860 289° West 423 487 34,000  Climbing FlightAware
10:05AM 52.9507 -8.8614 289° West 484 557 32,500 -2,580 Descending FlightAware UK
10:06AM 52.9619 -8.9170 288° West 482 555 32,500 3,900 Level FlightAware UK
10:06AM 52.9630 -8.9210 288° West 425 489 34,000  Climbing FlightAware
10:06AM 52.9768 -8.9912 288° West 482 555 32,500  Descending FlightAware UK
10:07AM 52.9900 -9.0580 288° West 425 489 34,000 1,320 Climbing FlightAware
10:07AM 53.0150 -9.1820 289° West 427 491 34,000  Level FlightAware
10:08AM 53.0390 -9.3070 288° West 427 491 34,000  Level FlightAware
10:09AM 53.0670 -9.4470 288° West 426 490 34,000  Level FlightAware
10:09AM 53.0910 -9.5710 288° West 425 489 34,000  Level FlightAware
10:10AM 53.1180 -9.7100 288° West 424 488 34,000  Level FlightAware
10:11AM 53.1420 -9.8360 288° West 422 486 34,000  Level FlightAware
10:11AM 53.1680 -9.9740 287° West 421 484 34,000  Level FlightAware
10:12AM 53.1920 -10.0970 288° West 418 481 34,000  Level FlightAware
10:13AM 53.2150 -10.2220 287° West 418 481 34,000  Level FlightAware
10:14AM 53.2410 -10.3600 288° West 417 480 34,000  Level FlightAware
10:14AM 53.2640 -10.4850 287° West 419 482 34,000  Level FlightAware
10:15AM 53.2900 -10.6230 288° West 419 482 34,000  Level FlightAware
10:16AM 53.3120 -10.7440 287° West 410 472 34,000  Level FlightAware
10:16AM 53.3370 -10.8830 287° West 410 472 34,000  Level FlightAware
10:17AM 53.3560 -10.9870 287° West 412 474 34,000  Level FlightAware
10:18AM 53.3810 -11.1270 287° West 412 474 34,000  Level FlightAware
10:18AM 53.4060 -11.2660 287° West 416 479 34,000  Level FlightAware
10:19AM 53.4270 -11.3880 286° West 416 479 34,000  Level FlightAware
10:20AM 53.4520 -11.5300 287° West 421 484 34,000  Level FlightAware
10:21AM 53.4730 -11.6530 286° West 428 493 34,000  Level FlightAware
10:21AM 53.4970 -11.7870 287° West 437 503 34,000  Level FlightAware
10:22AM 53.5220 -11.9340 286° West 441 507 34,000  Level FlightAware
10:23AM 53.5440 -12.0660 286° West 443 510 34,000 120 Level FlightAware
10:23AM 53.5700 -12.2180 286° West 444 511 34,200 480 Climbing FlightAware
10:24AM 53.5910 -12.3470 285° West 446 513 34,700 660 Climbing FlightAware
10:25AM 53.6140 -12.4850 286° West 451 519 35,100 540 Climbing FlightAware
10:25AM 53.6380 -12.6290 286° West 454 522 35,500 480 Climbing FlightAware
10:26AM 53.6620 -12.7780 285° West 460 529 35,800 300 Climbing FlightAware
10:27AM 53.6870 -12.9330 285° West 458 527 36,000 120 Climbing FlightAware
10:28AM 53.7090 -13.0680 285° West 457 526 36,000  Level FlightAware
10:28AM 53.7310 -13.2070 285° West 458 527 36,000  Level FlightAware
10:29AM 53.7560 -13.3630 285° West 460 529 36,000  Level FlightAware
10:30AM 53.7770 -13.5020 284° West 463 533 36,000  Level FlightAware
10:30AM 53.7940 -13.6110 285° West 463 533 36,000  Level FlightAware
10:31AM 53.8220 -13.7930 285° West 464 534 36,000  Level FlightAware
10:32AM 53.8450 -13.9420 285° West 464 534 36,000  Level FlightAware
10:32AM 53.8640 -14.0690 284° West 465 535 36,000  Level FlightAware
10:33AM 53.8920 -14.2580 284° West 466 536 36,000  Level FlightAware
10:34AM 53.9100 -14.3790 284° West 466 536 36,000  Level FlightAware
10:35AM 53.9280 -14.5000 284° West 466 536 36,000  Level FlightAware
10:35AM 53.9500 -14.6510 284° West 466 536 36,000  Level FlightAware
10:36AM 53.9670 -14.7720 283° West 466 536 36,000  Level FlightAware
10:37AM 53.9850 -14.8930 284° West 466 536 36,000  Level FlightAware
10:37AM 54.0030 -15.0140 284° West 466 536 36,000  Level FlightAware
10:38AM 54.0250 -15.1650 284° West 466 536 36,000  Level FlightAware
10:39AM 54.0430 -15.2860 284° West 466 536 36,000  Level FlightAware
10:40AM 54.0610 -15.4070 284° West 466 536 36,000  Level FlightAware
10:40AM 54.0780 -15.5280 284° West 466 536 36,000  Level FlightAware
10:41AM 54.0960 -15.6500 284° West 466 536 36,000  Level FlightAware
10:42AM 54.1180 -15.8010 284° West 466 536 36,000  Level FlightAware
10:42AM 54.1360 -15.9230 284° West 466 536 36,000  Level FlightAware
10:45AM 54.2783 -16.3429 300° West  Level Estimated
10:46AM 54.3471 -16.5488 300° West  Level Estimated
10:47AM 54.4157 -16.7554 300° West  Level Estimated
10:48AM 54.4838 -16.9627 300° West  Level Estimated
10:49AM 54.5517 -17.1706 299° West  Level Estimated
10:50AM 54.6191 -17.3793 299° West  Level Estimated
10:51AM 54.6862 -17.5886 299° West  Level Estimated
10:52AM 54.7529 -17.7986 299° West  Level Estimated
10:53AM 54.8193 -18.0094 299° West  Level Estimated
10:54AM 54.8853 -18.2208 299° West  Level Estimated
10:55AM 54.9509 -18.4329 298° West  Level Estimated
10:56AM 55.0162 -18.6457 298° West  Level Estimated
10:57AM 55.0811 -18.8592 298° West  Level Estimated
10:58AM 55.1456 -19.0734 298° West  Level Estimated
10:59AM 55.2097 -19.2883 298° West  Level Estimated
10:59AM 54.0000 -20.0000 265° West 504 580 36,000  Level ETMS Enhanced Traffic Management System
11:00AM 55.2735 -19.5038 298° West  Level Estimated
11:01AM 55.3369 -19.7201 297° West  Level Estimated
11:02AM 55.3999 -19.9370 297° West  Level Estimated
11:03AM 55.4625 -20.1547 297° West  Level Estimated
11:04AM 55.5247 -20.3730 297° West  Level Estimated
11:05AM 55.5866 -20.5920 297° West  Level Estimated
11:06AM 53.8946 -21.6573 263° West 504 580 36,000  Level FlightAware Transoceanic
11:07AM 53.8777 -21.8934 263° West 504 580 36,000  Level FlightAware Transoceanic
11:08AM 53.8603 -22.1292 263° West 504 580 36,000  Level FlightAware Transoceanic
11:09AM 53.8425 -22.3649 263° West 504 580 36,000  Level FlightAware Transoceanic
11:10AM 53.8242 -22.6003 262° West 504 580 36,000  Level FlightAware Transoceanic
11:11AM 53.8054 -22.8356 262° West 504 580 36,000  Level FlightAware Transoceanic
11:12AM 53.7862 -23.0706 262° West 504 580 36,000  Level FlightAware Transoceanic
11:13AM 53.7665 -23.3054 262° West 504 580 36,000  Level FlightAware Transoceanic
11:14AM 53.7464 -23.5400 262° West 504 580 36,000  Level FlightAware Transoceanic
11:15AM 53.7258 -23.7744 261° West 504 580 36,000  Level FlightAware Transoceanic
11:16AM 53.7047 -24.0085 261° West 504 580 36,000  Level FlightAware Transoceanic
11:17AM 53.6832 -24.2424 261° West 504 580 36,000  Level FlightAware Transoceanic
11:18AM 53.6613 -24.4761 261° West 504 580 36,000  Level FlightAware Transoceanic
11:19AM 53.6389 -24.7095 261° West 504 580 36,000  Level FlightAware Transoceanic
11:20AM 53.6160 -24.9426 261° West 504 580 36,000  Level FlightAware Transoceanic
11:21AM 53.5927 -25.1755 260° West 504 580 36,000  Level FlightAware Transoceanic
11:22AM 53.5689 -25.4082 260° West 504 580 36,000  Level FlightAware Transoceanic
11:23AM 53.5447 -25.6406 260° West 504 580 36,000  Level FlightAware Transoceanic
11:24AM 53.5200 -25.8727 260° West 504 580 36,000  Level FlightAware Transoceanic
11:25AM 53.4949 -26.1045 260° West 504 580 36,000  Level FlightAware Transoceanic
11:26AM 53.4693 -26.3361 259° West 504 580 36,000  Level FlightAware Transoceanic
11:27AM 53.4433 -26.5674 259° West 504 580 36,000  Level FlightAware Transoceanic
11:28AM 53.4168 -26.7983 259° West 504 580 36,000  Level FlightAware Transoceanic
11:29AM 53.3899 -27.0291 259° West 504 580 36,000  Level FlightAware Transoceanic
11:30AM 53.3625 -27.2595 259° West 504 580 36,000  Level FlightAware Transoceanic
11:31AM 53.3347 -27.4896 258° West 504 580 36,000  Level FlightAware Transoceanic
11:32AM 53.3065 -27.7194 258° West 504 580 36,000  Level FlightAware Transoceanic
11:33AM 53.2778 -27.9489 258° West 504 580 36,000  Level FlightAware Transoceanic
11:34AM 53.2487 -28.1781 258° West 504 580 36,000  Level FlightAware Transoceanic
11:35AM 53.2191 -28.4070 258° West 504 580 36,000  Level FlightAware Transoceanic
11:36AM 53.1891 -28.6355 258° West 504 580 36,000  Level FlightAware Transoceanic
11:37AM 53.1587 -28.8638 257° West 504 580 36,000  Level FlightAware Transoceanic
11:38AM 53.1278 -29.0917 257° West 504 580 36,000  Level FlightAware Transoceanic
11:39AM 53.0965 -29.3193 257° West 504 580 36,000  Level FlightAware Transoceanic
11:40AM 53.0648 -29.5465 257° West 504 580 36,000  Level FlightAware Transoceanic
11:41AM 53.0326 -29.7734 257° West 504 580 36,000  Level FlightAware Transoceanic
11:42AM 53.0004 -29.9973 257° West  Level FlightAware Approximate
11:43AM 52.9674 -30.2206 256° West  Level FlightAware Approximate
11:44AM 52.9870 -30.2234 265° West  Level FlightAware Approximate
11:45AM 52.9732 -30.4522 264° West  Level FlightAware Approximate
11:46AM 52.9591 -30.6782 264° West  Level FlightAware Approximate
11:47AM 52.9446 -30.9041 264° West  Level FlightAware Approximate
11:48AM 52.9297 -31.1299 264° West  Level FlightAware Approximate
11:49AM 52.9143 -31.3554 264° West  Level FlightAware Approximate
11:50AM 52.8986 -31.5809 263° West  Level FlightAware Approximate
11:51AM 52.8824 -31.8061 263° West  Level FlightAware Approximate
11:52AM 52.8657 -32.0312 263° West  Level FlightAware Approximate
11:53AM 52.8487 -32.2561 263° West  Level FlightAware Approximate
11:54AM 52.8312 -32.4809 263° West  Level FlightAware Approximate
11:55AM 52.8133 -32.7054 263° West  Level FlightAware Approximate
11:56AM 52.7950 -32.9298 262° West  Level FlightAware Approximate
11:57AM 52.7762 -33.1539 262° West  Level FlightAware Approximate
11:58AM 52.7571 -33.3779 262° West  Level FlightAware Approximate
11:59AM 52.7375 -33.6017 262° West  Level FlightAware Approximate
12:00PM 52.7175 -33.8253 262° West  Level FlightAware Approximate
12:01PM 52.6970 -34.0486 262° West  Level FlightAware Approximate
12:02PM 52.6762 -34.2718 261° West  Level FlightAware Approximate
12:03PM 52.6549 -34.4947 261° West  Level FlightAware Approximate
12:04PM 52.6332 -34.7174 261° West  Level FlightAware Approximate
12:05PM 52.6111 -34.9399 261° West  Level FlightAware Approximate
12:06PM 52.5888 -35.1623 261° West  Level FlightAware Approximate
12:07PM 52.5664 -35.3845 261° West  Level FlightAware Approximate
12:08PM 52.5436 -35.6064 260° West  Level FlightAware Approximate
12:09PM 52.5204 -35.8282 260° West  Level FlightAware Approximate
12:10PM 52.4967 -36.0496 260° West  Level FlightAware Approximate
12:11PM 52.4726 -36.2709 260° West  Level FlightAware Approximate
12:12PM 52.4482 -36.4919 260° West  Level FlightAware Approximate
12:13PM 52.4233 -36.7127 260° West  Level FlightAware Approximate
12:14PM 52.3980 -36.9332 259° West  Level FlightAware Approximate
12:15PM 52.3723 -37.1534 259° West  Level FlightAware Approximate
12:16PM 52.3461 -37.3734 259° West  Level FlightAware Approximate
12:17PM 52.3196 -37.5932 259° West  Level FlightAware Approximate
12:18PM 52.2927 -37.8126 259° West  Level FlightAware Approximate
12:19PM 52.2654 -38.0318 259° West  Level FlightAware Approximate
12:20PM 52.2376 -38.2508 258° West  Level FlightAware Approximate
12:21PM 52.2094 -38.4694 258° West  Level FlightAware Approximate
12:22PM 52.1809 -38.6878 258° West  Level FlightAware Approximate
12:23PM 52.1519 -38.9059 258° West  Level FlightAware Approximate
12:24PM 52.1226 -39.1237 258° West  Level FlightAware Approximate
12:25PM 52.0928 -39.3412 258° West  Level FlightAware Approximate
12:26PM 52.0627 -39.5584 257° West  Level FlightAware Approximate
12:27PM 52.0321 -39.7754 257° West  Level FlightAware Approximate
12:28PM 52.0011 -39.9920 257° West  Level FlightAware Approximate
12:29PM 51.9870 -40.2130 264° West  Level FlightAware Approximate
12:30PM 51.9730 -40.4341 264° West  Level FlightAware Approximate
12:31PM 51.9587 -40.6547 264° West  Level FlightAware Approximate
12:32PM 51.9439 -40.8751 264° West  Level FlightAware Approximate
12:33PM 51.9287 -41.0954 264° West  Level FlightAware Approximate
12:34PM 51.9134 -41.3156 264° West  Level FlightAware Approximate
12:35PM 51.8985 -41.5357 264° West  Level FlightAware Approximate
12:36PM 51.8833 -41.7558 264° West  Level FlightAware Approximate
12:37PM 51.8675 -41.9757 263° West  Level FlightAware Approximate
12:38PM 51.8514 -42.1954 263° West  Level FlightAware Approximate
12:39PM 51.8349 -42.4150 263° West  Level FlightAware Approximate
12:40PM 51.8180 -42.6344 263° West  Level FlightAware Approximate
12:41PM 51.8007 -42.8536 263° West  Level FlightAware Approximate
12:42PM 51.7829 -43.0727 263° West  Level FlightAware Approximate
12:43PM 51.7648 -43.2916 262° West  Level FlightAware Approximate
12:44PM 51.7462 -43.5103 262° West  Level FlightAware Approximate
12:45PM 51.7272 -43.7289 262° West  Level FlightAware Approximate
12:46PM 51.7079 -43.9472 262° West  Level FlightAware Approximate
12:47PM 51.6881 -44.1654 262° West  Level FlightAware Approximate
12:48PM 51.6679 -44.3834 262° West  Level FlightAware Approximate
12:49PM 51.6474 -44.6011 261° West  Level FlightAware Approximate
12:50PM 51.6264 -44.8187 261° West  Level FlightAware Approximate
12:51PM 51.6050 -45.0361 261° West  Level FlightAware Approximate
12:52PM 51.5832 -45.2533 261° West  Level FlightAware Approximate
12:53PM 51.5610 -45.4702 261° West  Level FlightAware Approximate
12:54PM 51.5384 -45.6870 261° West  Level FlightAware Approximate
12:55PM 51.5155 -45.9035 260° West  Level FlightAware Approximate
12:56PM 51.4921 -46.1198 260° West  Level FlightAware Approximate
12:57PM 51.4683 -46.3359 260° West  Level FlightAware Approximate
12:58PM 51.4441 -46.5518 260° West  Level FlightAware Approximate
12:59PM 51.4196 -46.7674 260° West  Level FlightAware Approximate
01:00PM 51.3946 -46.9828 260° West  Level FlightAware Approximate
01:01PM 51.3692 -47.1979 259° West  Level FlightAware Approximate
01:02PM 51.3435 -47.4128 259° West  Level FlightAware Approximate
01:03PM 51.3173 -47.6275 259° West  Level FlightAware Approximate
01:04PM 51.2908 -47.8419 259° West  Level FlightAware Approximate
01:05PM 51.2639 -48.0561 259° West  Level FlightAware Approximate
01:06PM 51.2365 -48.2701 259° West  Level FlightAware Approximate
01:07PM 51.2088 -48.4837 258° West  Level FlightAware Approximate
01:08PM 51.1807 -48.6971 258° West  Level FlightAware Approximate
01:09PM 51.1523 -48.9103 258° West  Level FlightAware Approximate
01:10PM 51.1234 -49.1232 258° West  Level FlightAware Approximate
01:11PM 51.0941 -49.3358 258° West  Level FlightAware Approximate
01:12PM 51.0645 -49.5481 258° West  Level FlightAware Approximate
01:13PM 51.0345 -49.7602 257° West  Level FlightAware Approximate
01:14PM 51.0041 -49.9720 257° West  Level FlightAware Approximate
01:14PM 51.0333 -49.6500 250° West 470 541 36,000  Level Moncton Center
01:15PM 50.9490 -50.1523 250° West  Level FlightAware Approximate
01:15PM 51.0167 -49.8667 263° West 490 564 36,000  Level Moncton Center
01:16PM 50.9026 -50.3563 250° West  Level FlightAware Approximate
01:16PM 50.9667 -50.0667 248° West 490 564 36,000  Level Moncton Center
01:17PM 50.8559 -50.5598 250° West  Level FlightAware Approximate
01:17PM 50.9167 -50.2500 247° West 480 552 36,000  Level Moncton Center
01:18PM 50.8082 -50.7657 250° West  Level FlightAware Approximate
01:18PM 50.8833 -50.4667 256° West 480 552 36,000  Level Moncton Center
01:19PM 50.7601 -50.9711 250° West  Level FlightAware Approximate
01:19PM 50.8333 -50.6500 247° West 480 552 36,000  Level Moncton Center
01:20PM 50.7117 -51.1761 250° West  Level FlightAware Approximate
01:20PM 50.8000 -50.8667 256° West 490 564 36,000  Level Moncton Center
01:21PM 50.7667 -51.0667 255° West 490 564 36,000  Level Moncton Center
01:27PM 50.6460 -52.3020 255° West 485 558 36,000  Level FlightAware
01:28PM 50.6320 -52.4210 260° West 485 558 36,000  Level FlightAware
01:28PM 50.6060 -52.6280 259° West 488 562 36,000  Level FlightAware
01:29PM 50.5880 -52.7770 259° West 489 563 36,000  Level FlightAware
01:30PM 50.5660 -52.9610 259° West 491 565 36,000  Level FlightAware
01:31PM 50.5490 -53.0960 259° West 492 566 36,000  Level FlightAware
01:31PM 50.5290 -53.2580 259° West 492 566 36,000  Level FlightAware
01:32PM 50.5110 -53.3980 259° West 492 566 36,000  Level FlightAware
01:33PM 50.4930 -53.5370 259° West 493 567 36,000  Level FlightAware
01:34PM 50.4710 -53.7110 259° West 494 568 36,000  Level FlightAware
01:34PM 50.4550 -53.8270 258° West 494 568 36,000  Level FlightAware
01:35PM 50.4330 -53.9930 258° West 494 568 36,000  Level FlightAware
01:36PM 50.4120 -54.1490 258° West 494 568 36,000  Level FlightAware
01:36PM 50.3940 -54.2880 259° West 493 567 36,000  Level FlightAware
01:37PM 50.3740 -54.4300 258° West 493 567 36,000  Level FlightAware
01:38PM 50.3530 -54.5850 258° West 493 567 36,000  Level FlightAware
01:38PM 50.3340 -54.7190 258° West 492 566 36,000  Level FlightAware
01:39PM 50.3140 -54.8630 258° West 492 566 36,000  Level FlightAware
01:40PM 50.2920 -55.0190 258° West 492 566 36,000  Level FlightAware
01:40PM 50.2720 -55.1580 257° West 494 568 36,000  Level FlightAware
01:41PM 50.2490 -55.3140 257° West 494 568 36,000  Level FlightAware
01:42PM 50.2290 -55.4530 257° West 494 568 36,000  Level FlightAware
01:43PM 50.2100 -55.5820 257° West 494 568 36,000  Level FlightAware
01:43PM 50.1860 -55.7430 257° West 493 567 36,000  Level FlightAware
01:44PM 50.1650 -55.8840 257° West 493 567 36,000  Level FlightAware
01:45PM 50.1410 -56.0400 257° West 491 565 36,000  Level FlightAware
01:45PM 50.1200 -56.1750 256° West 491 565 36,000  Level FlightAware
01:46PM 50.0990 -56.3120 257° West 491 565 36,000  Level FlightAware
01:47PM 50.0750 -56.4670 256° West 492 566 36,000  Level FlightAware
01:47PM 50.0530 -56.6050 256° West 494 568 36,000  Level FlightAware
01:48PM 50.0280 -56.7610 256° West 494 568 36,000  Level FlightAware
01:49PM 50.0090 -56.8850 257° West 495 570 36,000  Level FlightAware
01:50PM 49.9840 -57.0360 256° West 497 572 36,000  Level FlightAware
01:50PM 49.9590 -57.1900 256° West 498 573 36,000  Level FlightAware
01:51PM 49.9360 -57.3290 256° West 498 573 36,000  Level FlightAware
01:52PM 49.9160 -57.4480 255° West 498 573 36,000  Level FlightAware
01:52PM 49.8910 -57.5950 255° West 498 573 36,000  Level FlightAware
01:53PM 49.8700 -57.7120 254° West 498 573 36,000  Level FlightAware
01:54PM 49.8380 -57.9100 256° West 501 577 36,000  Level FlightAware
01:54PM 49.8180 -58.0280 255° West 501 577 36,000  Level FlightAware
01:55PM 49.7980 -58.1460 255° West 501 577 36,000  Level FlightAware
01:56PM 49.7770 -58.2640 255° West 501 577 36,000  Level FlightAware
01:56PM 49.7570 -58.3820 255° West 501 577 36,000  Level FlightAware
01:57PM 49.7310 -58.5290 255° West 501 577 36,000  Level FlightAware
01:58PM 49.7110 -58.6470 255° West 501 577 36,000  Level FlightAware
01:59PM 49.6900 -58.7640 255° West 501 577 36,000  Level FlightAware
01:59PM 49.6700 -58.8820 255° West 501 577 36,000  Level FlightAware
02:00PM 49.6440 -59.0290 255° West 501 577 36,000  Level FlightAware
02:01PM 49.6240 -59.1460 255° West 501 577 36,000  Level FlightAware
02:01PM 49.6040 -59.2640 255° West 501 577 36,000  Level FlightAware
02:02PM 49.5830 -59.3810 255° West 501 577 36,000  Level FlightAware
02:03PM 49.5580 -59.5280 255° West 501 577 36,000  Level FlightAware
02:03PM 49.4667 -59.8333 255° West 500 575 36,000  Level Moncton Center
02:04PM 49.4500 -60.0500 263° West 500 575 36,000  Level Moncton Center
02:05PM 49.4000 -60.2500 249° West 500 575 36,000  Level Moncton Center
02:06PM 49.3500 -60.4333 247° West 500 575 36,000  Level Moncton Center
02:07PM 49.3167 -60.6500 257° West 490 564 36,000  Level Moncton Center
02:08PM 49.2667 -60.8500 249° West 500 575 36,000  Level Moncton Center
02:09PM 49.2333 -61.0667 257° West 490 564 36,000  Level Moncton Center
02:10PM 49.2000 -61.2667 256° West 490 564 36,000  Level Moncton Center
02:11PM 49.1500 -61.4833 251° West 500 575 36,000  Level Moncton Center
02:12PM 49.1167 -61.6667 255° West 490 564 36,000  Level Moncton Center
02:13PM 49.0667 -61.9167 253° West 500 575 36,000  Level Gander Center
02:14PM 49.0167 -62.1167 249° West 500 575 36,000  Level Gander Center
02:15PM 48.9833 -62.2833 253° West 510 587 36,000  Level Moncton Center
02:16PM 48.9333 -62.4667 248° West 500 575 36,000  Level Moncton Center
02:17PM 48.9000 -62.6667 256° West 500 575 36,000  Level Moncton Center
02:18PM 48.8500 -62.8667 249° West 500 575 36,000  Level Moncton Center
02:19PM 48.8167 -63.0667 256° West 510 587 36,000  Level Moncton Center
02:20PM 48.7667 -63.2833 251° West 510 587 36,000  Level Moncton Center
02:21PM 48.7167 -63.4833 249° West 520 598 36,000  Level Moncton Center
02:22PM 48.6667 -63.7167 252° West 510 587 36,000  Level Moncton Center
02:23PM 48.6167 -63.8833 246° West 520 598 36,000  Level Moncton Center
02:24PM 48.5667 -64.1167 252° West 510 587 36,000  Level Moncton Center
02:25PM 48.5167 -64.3000 248° West 510 587 36,000  Level Moncton Center
02:26PM 48.4667 -64.5167 251° West 520 598 36,000  Level Moncton Center
02:27PM 48.4167 -64.7333 251° West 520 598 36,000  Level Moncton Center
02:28PM 48.3833 -64.9333 256° West 520 598 36,000  Level Moncton Center
02:29PM 48.3333 -65.1333 249° West 510 587 36,000  Level Moncton Center
02:30PM 48.2833 -65.3333 249° West 510 587 36,000  Level Moncton Center
02:31PM 48.2333 -65.5333 249° West 510 587 36,000  Level Moncton Center
02:32PM 48.1833 -65.7333 250° West 520 598 36,000  Level Moncton Center
02:33PM 48.1333 -65.9333 250° West 510 587 36,000  Level Moncton Center
02:34PM 48.0667 -66.1333 244° Southwest 520 598 36,000  Level Moncton Center
02:35PM 48.0167 -66.3167 248° West 510 587 36,000  Level Moncton Center
02:36PM 47.9667 -66.5167 250° West 520 598 36,000  Level Moncton Center
02:37PM 47.9333 -66.7500 258° West 510 587 36,000  Level Moncton Center
02:38PM 47.8667 -66.9500 244° Southwest 520 598 36,000  Level Moncton Center
02:39PM 47.8333 -67.1333 255° West 520 598 36,000  Level Moncton Center
02:40PM 47.7833 -67.3333 250° West 510 587 36,000  Level Moncton Center
02:47PM 47.4870 -68.5860 250° West 502 578 36,000  Level FlightAware
02:47PM 47.4560 -68.7200 251° West 500 575 36,000  Level FlightAware
02:48PM 47.4210 -68.8650 250° West 498 573 36,000  Level FlightAware
02:49PM 47.3900 -68.9910 250° West 498 573 36,000  Level FlightAware
02:49PM 47.3560 -69.1330 251° West 497 572 36,000  Level FlightAware
02:50PM 47.3250 -69.2610 250° West 496 571 36,000  Level FlightAware
02:51PM 47.2930 -69.3880 250° West 495 570 36,000  Level FlightAware
02:51PM 47.2580 -69.5290 250° West 494 568 36,000  Level FlightAware
02:52PM 47.2270 -69.6540 250° West 493 567 36,000  Level FlightAware
02:53PM 47.1920 -69.7950 250° West 492 566 36,000  Level FlightAware
02:54PM 47.1600 -69.9190 249° West 492 566 36,000  Level FlightAware
02:54PM 47.1290 -70.0450 250° West 492 566 36,000  Level FlightAware
02:55PM 47.0930 -70.1840 249° West 492 566 36,000  Level FlightAware
02:56PM 47.0610 -70.3080 249° West 491 565 36,000  Level FlightAware
02:56PM 47.0250 -70.4480 249° West 491 565 36,000  Level FlightAware
02:57PM 46.9930 -70.5720 249° West 490 564 36,000  Level FlightAware
02:58PM 46.9570 -70.7110 249° West 490 564 36,000  Level FlightAware
02:58PM 46.9250 -70.8320 249° West 488 562 36,000  Level FlightAware
02:59PM 46.8920 -70.9550 249° West 488 562 36,000  Level FlightAware
03:00PM 46.8550 -71.0950 249° West 488 562 36,000  Level FlightAware
03:01PM 46.8240 -71.2120 249° West 488 562 36,000  Level FlightAware
03:01PM 46.7910 -71.3360 249° West 489 563 36,000  Level FlightAware
03:02PM 46.7530 -71.4760 248° West 491 565 36,000  Level FlightAware
03:03PM 46.7200 -71.5990 249° West 491 565 36,000  Level FlightAware
03:03PM 46.6860 -71.7210 248° West 492 566 36,000  Level FlightAware
03:04PM 46.6490 -71.8590 249° West 493 567 36,000  Level FlightAware
03:05PM 46.6140 -71.9830 248° West 493 567 36,000  Level FlightAware
03:05PM 46.5810 -72.1040 248° West 493 567 36,000  Level FlightAware
03:06PM 46.5420 -72.2420 248° West 492 566 36,000  Level FlightAware
03:07PM 46.5080 -72.3640 248° West 492 566 36,000  Level FlightAware
03:08PM 46.4700 -72.5010 248° West 492 566 36,000  Level FlightAware
03:08PM 46.4350 -72.6230 247° West 492 566 36,000 240 Level FlightAware
03:09PM 46.3960 -72.7590 247° West 491 565 36,400 960 Climbing FlightAware
03:10PM 46.3620 -72.8780 248° West 486 559 37,400 1,080 Climbing FlightAware
03:10PM 46.3270 -72.9990 247° West 488 562 37,900 420 Climbing FlightAware
03:11PM 46.2890 -73.1330 248° West 492 566 38,000 60 Climbing FlightAware
03:12PM 46.2490 -73.2700 247° West 491 565 38,000  Level FlightAware
03:12PM 46.2140 -73.3910 247° West 489 563 38,000  Level FlightAware
03:13PM 46.1810 -73.5030 247° West 489 563 38,000  Level FlightAware
03:14PM 46.1400 -73.6420 247° West 487 560 38,000  Level FlightAware
03:15PM 46.1040 -73.7630 247° West 487 560 38,000  Level FlightAware
03:15PM 46.0690 -73.8810 247° West 485 558 38,000  Level FlightAware
03:16PM 46.0300 -74.0110 247° West 484 557 38,000  Level FlightAware
03:17PM 45.9940 -74.1280 246° West 483 556 38,000  Level FlightAware
03:17PM 45.9590 -74.2470 247° West 483 556 38,000  Level FlightAware
03:18PM 45.9180 -74.3810 246° West 481 554 38,000  Level FlightAware
03:19PM 45.8790 -74.5090 246° West 479 551 38,000  Level FlightAware
03:19PM 45.8430 -74.6250 246° West 478 550 38,000  Level FlightAware
03:20PM 45.8020 -74.7580 246° West 477 549 38,000  Level FlightAware
03:21PM 45.7670 -74.8720 246° West 478 550 38,000  Level FlightAware
03:22PM 45.7280 -74.9960 246° West 476 548 38,000  Level FlightAware
03:22PM 45.6940 -75.1050 246° West 474 545 38,000  Level FlightAware
03:23PM 45.6580 -75.2190 246° West 472 543 38,000  Level FlightAware
03:24PM 45.6170 -75.3500 246° West 473 544 38,000  Level FlightAware
03:24PM 45.5800 -75.4650 245° Southwest 472 543 38,000  Level FlightAware
03:25PM 45.5440 -75.5790 246° West 472 543 38,000  Level FlightAware
03:26PM 45.5080 -75.6910 245° Southwest 471 542 38,000  Level FlightAware
03:26PM 45.4660 -75.8210 245° Southwest 470 541 38,000  Level FlightAware
03:27PM 45.4240 -75.9500 245° Southwest 470 541 38,000  Level FlightAware
03:28PM 45.3850 -76.0600 243° Southwest 470 541 38,000  Level FlightAware
03:29PM 45.3470 -76.1680 243° Southwest 470 541 38,000  Level FlightAware
03:29PM 45.3200 -76.2630 248° West 467 537 38,000  Level FlightAware
03:30PM 45.2960 -76.4180 258° West 461 531 38,000  Level FlightAware
03:31PM 45.2830 -76.5160 259° West 461 531 38,000  Level FlightAware
03:31PM 45.2630 -76.6560 259° West 461 531 38,000  Level FlightAware
03:32PM 45.2460 -76.7820 259° West 460 529 38,000  Level FlightAware
03:33PM 45.2270 -76.9150 259° West 460 529 38,000  Level FlightAware
03:34PM 45.2080 -77.0500 259° West 460 529 38,000  Level FlightAware
03:34PM 45.1920 -77.1670 259° West 460 529 38,000  Level FlightAware
03:35PM 45.1750 -77.2820 258° West 460 529 38,000  Level FlightAware
03:36PM 45.1560 -77.4140 259° West 459 528 38,000  Level FlightAware
03:36PM 45.1380 -77.5350 258° West 459 528 38,000  Level FlightAware
03:37PM 45.1190 -77.6660 258° West 459 528 38,000  Level FlightAware
03:38PM 45.1020 -77.7830 258° West 460 529 38,000  Level FlightAware
03:38PM 45.0850 -77.8930 258° West 460 529 38,000  Level FlightAware
03:39PM 45.0680 -78.0050 258° West 461 531 38,000  Level FlightAware
03:40PM 45.0460 -78.1520 258° West 461 531 38,000  Level FlightAware
03:41PM 45.0260 -78.2820 258° West 462 532 38,000  Level FlightAware
03:41PM 45.0080 -78.4020 258° West 462 532 38,000  Level FlightAware
03:42PM 44.9890 -78.5220 257° West 462 532 38,000  Level FlightAware
03:43PM 44.9690 -78.6520 258° West 462 532 38,000  Level FlightAware
03:43PM 44.9510 -78.7620 257° West 463 533 38,000  Level FlightAware
03:44PM 44.9310 -78.8880 257° West 463 533 38,000  Level FlightAware
03:45PM 44.9110 -79.0160 258° West 462 532 38,000  Level FlightAware
03:45PM 44.8890 -79.1510 257° West 461 531 38,000  Level FlightAware
03:46PM 44.8700 -79.2690 257° West 459 528 38,000  Level FlightAware
03:47PM 44.8510 -79.3850 257° West 458 527 38,000  Level FlightAware
03:48PM 44.8290 -79.5160 257° West 458 527 38,000  Level FlightAware
03:48PM 44.8100 -79.6290 257° West 457 526 38,000  Level FlightAware
03:49PM 44.7880 -79.7610 257° West 456 525 38,000  Level FlightAware
03:50PM 44.7690 -79.8750 257° West 457 526 38,000  Level FlightAware
03:50PM 44.7490 -79.9910 256° West 457 526 38,000  Level FlightAware
03:51PM 44.7270 -80.1190 256° West 456 525 38,000  Level FlightAware
03:52PM 44.7070 -80.2320 256° West 456 525 38,000  Level FlightAware
03:52PM 44.6840 -80.3640 256° West 456 525 38,000  Level FlightAware
03:53PM 44.6640 -80.4800 256° West 456 525 38,000  Level FlightAware
03:54PM 44.6460 -80.5820 256° West 456 525 38,000  Level FlightAware
03:55PM 44.6200 -80.7240 256° West 456 525 38,000  Level FlightAware
03:55PM 44.6000 -80.8370 256° West 458 527 38,000  Level FlightAware
03:56PM 44.5770 -80.9660 256° West 459 528 38,000  Level FlightAware
03:57PM 44.5550 -81.0840 255° West 459 528 38,000  Level FlightAware
03:57PM 44.5370 -81.1820 256° West 458 527 38,000  Level FlightAware
03:58PM 44.5120 -81.3180 256° West 458 527 38,000  Level FlightAware
03:59PM 44.4890 -81.4420 255° West 458 527 38,000  Level FlightAware
03:59PM 44.4680 -81.5560 256° West 460 529 38,000  Level FlightAware
04:00PM 44.4450 -81.6800 255° West 461 531 38,000  Level FlightAware
04:01PM 44.4220 -81.8010 255° West 463 533 38,000  Level FlightAware
04:02PM 44.3970 -81.9310 255° West 464 534 38,000  Level FlightAware
04:02PM 44.3760 -82.0430 255° West 464 534 38,000  Level FlightAware
04:03PM 44.3500 -82.1770 255° West 464 534 38,000  Level FlightAware
04:04PM 44.3290 -82.2880 255° West 462 532 38,000  Level FlightAware
04:04PM 44.3060 -82.4050 255° West 460 529 38,000  Level FlightAware
04:05PM 44.2790 -82.5400 254° West 459 528 38,000  Level FlightAware
04:06PM 44.2640 -82.6550 260° West 459 528 38,000  Level FlightAware
04:06PM 44.2480 -82.7900 261° West 459 528 38,000  Level FlightAware
04:07PM 44.2340 -82.9050 260° West 461 531 38,000  Level FlightAware
04:08PM 44.2180 -83.0360 260° West 461 531 38,000  Level FlightAware
04:09PM 44.2040 -83.1550 261° West 462 532 38,000  Level FlightAware
04:09PM 44.1900 -83.2700 260° West 462 532 38,000  Level FlightAware
04:10PM 44.1740 -83.4000 260° West 462 532 38,000  Level FlightAware
04:11PM 44.1600 -83.5180 261° West 462 532 38,000  Level FlightAware
04:11PM 44.1460 -83.6360 261° West 462 532 38,000  Level FlightAware
04:12PM 44.1290 -83.7690 260° West 462 532 38,000  Level FlightAware
04:13PM 44.1150 -83.8830 260° West 460 529 38,000  Level FlightAware
04:13PM 44.0980 -84.0180 260° West 457 526 38,000  Level FlightAware
04:14PM 44.0840 -84.1290 260° West 455 524 38,000  Level FlightAware
04:15PM 44.0690 -84.2470 260° West 453 521 38,000  Level FlightAware
04:16PM 44.0530 -84.3740 260° West 451 519 38,000  Level FlightAware
04:16PM 44.0380 -84.4890 260° West 452 520 38,000  Level FlightAware
04:17PM 44.0230 -84.6020 260° West 452 520 38,000  Level FlightAware
04:18PM 44.0100 -84.7060 260° West 451 519 38,000  Level FlightAware
04:18PM 43.9910 -84.8470 259° West 451 519 38,000  Level FlightAware
04:19PM 43.9740 -84.9740 260° West 451 519 38,000  Level FlightAware
04:20PM 43.9580 -85.0910 259° West 453 521 38,000  Level FlightAware
04:20PM 43.9430 -85.2010 259° West 454 522 38,000  Level FlightAware
04:21PM 43.9250 -85.3310 259° West 452 520 38,000  Level FlightAware
04:22PM 43.9100 -85.4450 260° West 448 516 38,000  Level FlightAware
04:23PM 43.8920 -85.5720 259° West 446 513 38,000  Level FlightAware
04:23PM 43.8770 -85.6800 259° West 445 512 38,000  Level FlightAware
04:24PM 43.8610 -85.7940 259° West 443 510 38,000  Level FlightAware
04:25PM 43.8430 -85.9120 258° West 443 510 38,000  Level FlightAware
04:25PM 43.8270 -86.0290 259° West 441 507 38,000  Level FlightAware
04:26PM 43.8120 -86.1310 259° West 441 507 38,000  Level FlightAware
04:27PM 43.7980 -86.2310 259° West 441 507 38,000  Level FlightAware
04:28PM 43.7700 -86.4160 258° West 443 510 38,000  Level FlightAware
04:28PM 43.7520 -86.5410 259° West 443 510 38,000  Level FlightAware
04:29PM 43.7360 -86.6480 258° West 441 507 38,000  Level FlightAware
04:30PM 43.7170 -86.7740 258° West 440 506 38,000  Level FlightAware
04:30PM 43.7000 -86.8850 258° West 440 506 38,000  Level FlightAware
04:31PM 43.6830 -86.9930 258° West 440 506 38,000  Level FlightAware
04:32PM 43.6640 -87.1200 258° West 440 506 38,000  Level FlightAware
04:33PM 43.6470 -87.2310 258° West 441 507 38,000  Level FlightAware
04:33PM 43.6300 -87.3360 257° West 441 507 38,000  Level FlightAware
04:34PM 43.6110 -87.4550 258° West 442 509 38,000  Level FlightAware
04:35PM 43.5930 -87.5710 258° West 443 510 38,000  Level FlightAware
04:35PM 43.5740 -87.6890 258° West 444 511 38,000  Level FlightAware
04:36PM 43.5550 -87.8080 258° West 445 512 38,000  Level FlightAware
04:37PM 43.5370 -87.9190 257° West 446 513 38,000  Level FlightAware
04:37PM 43.5180 -88.0390 258° West 446 513 38,000  Level FlightAware
04:38PM 43.5000 -88.1480 257° West 448 516 38,000  Level FlightAware
04:39PM 43.4820 -88.2540 257° West 448 516 38,000  Level FlightAware
04:40PM 43.4600 -88.3890 257° West 449 517 38,000  Level FlightAware
04:40PM 43.4390 -88.5140 257° West 449 517 38,000  Level FlightAware
04:41PM 43.4200 -88.6260 257° West 449 517 38,000  Level FlightAware
04:42PM 43.4010 -88.7340 256° West 449 517 38,000  Level FlightAware
04:42PM 43.3800 -88.8580 257° West 450 518 38,000  Level FlightAware
04:43PM 43.3610 -88.9700 257° West 452 520 38,000  Level FlightAware
04:44PM 43.3400 -89.0920 257° West 452 520 38,000  Level FlightAware
04:44PM 43.3200 -89.2060 256° West 452 520 38,000  Level FlightAware
04:45PM 43.3000 -89.3180 256° West 451 519 38,000  Level FlightAware
04:46PM 43.2780 -89.4450 257° West 450 518 38,000  Level FlightAware
04:47PM 43.2590 -89.5520 256° West 450 518 38,000  Level FlightAware
04:47PM 43.2370 -89.6760 256° West 450 518 38,000  Level FlightAware
04:48PM 43.2160 -89.7900 256° West 450 518 38,000  Level FlightAware
04:49PM 43.1980 -89.8920 256° West 450 518 38,000  Level FlightAware
04:49PM 43.1740 -90.0220 256° West 451 519 38,000  Level FlightAware
04:50PM 43.1540 -90.1330 256° West 452 520 38,000  Level FlightAware
04:51PM 43.1340 -90.2410 256° West 453 521 38,000  Level FlightAware
04:51PM 43.1100 -90.3660 255° West 455 524 38,000  Level FlightAware
04:52PM 43.0890 -90.4820 256° West 456 525 38,000  Level FlightAware
04:53PM 43.0680 -90.5940 256° West 455 524 38,000  Level FlightAware
04:54PM 43.0450 -90.7150 255° West 455 524 38,000  Level FlightAware
04:54PM 43.0210 -90.8430 256° West 455 524 38,000  Level FlightAware
04:55PM 42.9990 -90.9550 255° West 455 524 38,000  Level FlightAware
04:56PM 42.9750 -91.0810 255° West 455 524 38,000  Level FlightAware
04:56PM 42.9530 -91.1930 255° West 454 522 38,000  Level FlightAware
04:57PM 42.9320 -91.3020 255° West 453 521 38,000  Level FlightAware
04:58PM 42.9080 -91.4240 255° West 453 521 38,000  Level FlightAware
04:58PM 42.8860 -91.5340 255° West 452 520 38,000  Level FlightAware
04:59PM 42.8640 -91.6440 255° West 451 519 38,000  Level FlightAware
05:00PM 42.8390 -91.7710 255° West 451 519 38,000  Level FlightAware
05:01PM 42.8170 -91.8790 255° West 450 518 38,000  Level FlightAware
05:01PM 42.7940 -91.9950 255° West 451 519 38,000  Level FlightAware
05:02PM 42.7710 -92.1090 255° West 452 520 38,000  Level FlightAware
05:03PM 42.7490 -92.2160 254° West 452 520 38,000  Level FlightAware
05:03PM 42.7230 -92.3420 254° West 452 520 38,000  Level FlightAware
05:04PM 42.7010 -92.4500 255° West 454 522 38,000  Level FlightAware
05:05PM 42.6750 -92.5750 254° West 455 524 38,000  Level FlightAware
05:05PM 42.6520 -92.6830 254° West 455 524 38,000  Level FlightAware
05:06PM 42.6290 -92.7930 254° West 455 524 38,000  Level FlightAware
05:07PM 42.6020 -92.9190 254° West 456 525 38,000  Level FlightAware
05:08PM 42.5770 -93.0410 254° West 457 526 38,000  Level FlightAware
05:08PM 42.5550 -93.1400 253° West 457 526 38,000 180 Level FlightAware
05:09PM 42.5300 -93.2590 254° West 458 527 38,300 720 Climbing FlightAware
05:10PM 42.5020 -93.3870 254° West 457 526 39,100 900 Climbing FlightAware
05:10PM 42.4780 -93.4960 253° West 458 527 39,600 540 Climbing FlightAware
05:11PM 42.4520 -93.6190 254° West 466 536 39,900 240 Climbing FlightAware
05:12PM 42.4270 -93.7300 253° West 468 539 40,000 60 Climbing FlightAware
05:12PM 42.4030 -93.8420 254° West 467 537 40,000  Level FlightAware
05:13PM 42.3780 -93.9550 253° West 467 537 40,000  Level FlightAware
05:14PM 42.3490 -94.0830 253° West 468 539 40,000  Level FlightAware
05:15PM 42.3240 -94.1930 253° West 469 540 40,000  Level FlightAware
05:15PM 42.2960 -94.3170 253° West 470 541 40,000  Level FlightAware
05:16PM 42.2710 -94.4290 253° West 470 541 40,000  Level FlightAware
05:17PM 42.2420 -94.5570 253° West 471 542 40,000  Level FlightAware
05:17PM 42.2150 -94.6710 252° West 473 544 40,000  Level FlightAware
05:18PM 42.1900 -94.7800 253° West 475 547 40,000  Level FlightAware
05:19PM 42.1640 -94.8940 253° West 476 548 40,000  Level FlightAware
05:19PM 42.1390 -95.0020 253° West 476 548 40,000  Level FlightAware
05:20PM 42.1040 -95.1490 252° West 476 548 40,000  Level FlightAware
05:21PM 42.0780 -95.2620 253° West 477 549 40,000  Level FlightAware
05:22PM 42.0520 -95.3690 252° West 477 549 40,000  Level FlightAware
05:22PM 42.0290 -95.4650 252° West 477 549 40,000  Level FlightAware
05:23PM 42.0060 -95.5610 252° West 477 549 40,000  Level FlightAware
05:24PM 41.9700 -95.7150 253° West 479 551 40,000  Level FlightAware
05:24PM 41.9430 -95.8260 252° West 479 551 40,000  Level FlightAware
05:25PM 41.9080 -95.9680 252° West 479 551 40,000  Level FlightAware
05:26PM 41.8780 -96.0910 252° West 478 550 40,000  Level FlightAware
05:26PM 41.8520 -96.2010 252° West 479 551 40,000  Level FlightAware
05:27PM 41.8130 -96.3560 251° West 479 551 40,000  Level FlightAware
05:28PM 41.7880 -96.4520 251° West 479 551 40,000  Level FlightAware
05:29PM 41.7630 -96.5470 251° West 479 551 40,000  Level FlightAware
05:29PM 41.7390 -96.6430 252° West 479 551 40,000  Level FlightAware
05:30PM 41.7080 -96.7620 251° West 479 551 40,000  Level FlightAware
05:31PM 41.6840 -96.8580 252° West 479 551 40,000  Level FlightAware
05:32PM 41.6590 -96.9530 251° West 479 551 40,000  Level FlightAware
05:32PM 41.6350 -97.0480 251° West 479 551 40,000  Level FlightAware
05:33PM 41.6100 -97.1440 251° West 479 551 40,000  Level FlightAware
05:34PM 41.5790 -97.2630 251° West 479 551 40,000  Level FlightAware
05:34PM 41.5550 -97.3580 251° West 479 551 40,000  Level FlightAware
05:35PM 41.5300 -97.4530 251° West 479 551 40,000  Level FlightAware
05:36PM 41.5060 -97.5480 251° West 479 551 40,000  Level FlightAware
05:36PM 41.4810 -97.6430 251° West 479 551 40,000  Level FlightAware
05:37PM 41.4131 -97.9192 251° West 481 554 40,000  Level Denver Center
05:38PM 41.3664 -98.0942 250° West 480 552 40,000  Level Minneapolis Center
05:39PM 41.3242 -98.2531 251° West 480 552 40,000  Level Minneapolis Center
05:40PM 41.2789 -98.4206 250° West 481 554 40,000  Level Minneapolis Center
05:41PM 41.2236 -98.6283 251° West 479 551 40,000  Level Minneapolis Center
05:42PM 41.1781 -98.7956 250° West 480 552 40,000  Level Minneapolis Center
05:43PM 41.1217 -98.9956 250° West 482 555 40,000  Level Minneapolis Center
05:44PM 41.0822 -99.1408 250° West 483 556 40,000  Level Denver Center
05:45PM 41.0358 -99.3069 250° West 482 555 40,000  Level Denver Center
05:46PM 40.9894 -99.4733 250° West 483 556 40,000  Level Denver Center
05:47PM 40.9328 -99.6733 249° West 483 556 40,000  Level Denver Center
05:48PM 40.8858 -99.8358 249° West 481 554 40,000  Level Denver Center
05:49PM 40.8403 -99.9944 249° West 482 555 40,000  Level Denver Center
05:55PM 40.5438 -101.0090 249° West 478 550 40,000  Level FlightAware ADS-B
05:56PM 40.5180 -101.0950 248° West 477 549 40,000  Level FlightAware ADS-B
05:56PM 40.4932 -101.1770 248° West 475 547 40,000  Level FlightAware ADS-B
05:57PM 40.4686 -101.2590 249° West 475 547 40,000  Level FlightAware ADS-B
05:57PM 40.4444 -101.3390 248° West 475 547 40,000  Level FlightAware ADS-B
05:58PM 40.4191 -101.4230 248° West 477 549 40,000  Level FlightAware ADS-B
05:58PM 40.3946 -101.5040 248° West 476 548 40,000  Level FlightAware ADS-B
05:59PM 40.3685 -101.5890 248° West 475 547 40,000  Level FlightAware ADS-B
05:59PM 40.3436 -101.6710 248° West 475 547 40,000  Level FlightAware ADS-B
06:00PM 40.3186 -101.7520 248° West 475 547 40,000  Level FlightAware ADS-B
06:00PM 40.2936 -101.8330 248° West 476 548 40,000  Level FlightAware ADS-B
06:01PM 40.2686 -101.9140 248° West 476 548 40,000  Level FlightAware ADS-B
06:01PM 40.2435 -101.9950 248° West 476 548 40,000  Level FlightAware ADS-B
06:02PM 40.2179 -102.0780 248° West 476 548 40,000  Level FlightAware ADS-B
06:02PM 40.1931 -102.1580 248° West 478 550 40,000  Level FlightAware ADS-B
06:03PM 40.1675 -102.2400 248° West 478 550 40,000  Level FlightAware ADS-B
06:03PM 40.1421 -102.3210 248° West 480 552 40,000  Level FlightAware ADS-B
06:04PM 40.1161 -102.4040 248° West 480 552 40,000  Level FlightAware ADS-B
06:05PM 40.0888 -102.4900 247° West 479 551 40,000  Level FlightAware ADS-B
06:05PM 40.0636 -102.5700 248° West 477 549 40,000  Level FlightAware ADS-B
06:06PM 40.0382 -102.6500 247° West 476 548 40,000  Level FlightAware ADS-B
06:06PM 40.0121 -102.7320 247° West 477 549 40,000  Level FlightAware ADS-B
06:07PM 39.9868 -102.8120 248° West 472 543 40,000  Level FlightAware ADS-B
06:07PM 39.9618 -102.8900 247° West 464 534 40,000  Level FlightAware ADS-B
06:08PM 39.9368 -102.9680 247° West 464 534 40,000  Level FlightAware ADS-B
06:08PM 39.9117 -103.0460 247° West 465 535 40,000  Level FlightAware ADS-B
06:09PM 39.8865 -103.1240 247° West 467 537 40,000  Level FlightAware ADS-B
06:09PM 39.8611 -103.2030 247° West 467 537 40,000  Level FlightAware ADS-B
06:10PM 39.8358 -103.2810 247° West 467 537 40,000  Level FlightAware ADS-B
06:10PM 39.8104 -103.3590 247° West 468 539 40,000  Level FlightAware ADS-B
06:11PM 39.7845 -103.4380 247° West 469 540 40,000  Level FlightAware ADS-B
06:11PM 39.7591 -103.5160 247° West 470 541 40,000  Level FlightAware ADS-B
06:12PM 39.7333 -103.5940 247° West 471 542 40,000  Level FlightAware ADS-B
06:12PM 39.7068 -103.6750 247° West 471 542 40,000  Level FlightAware ADS-B
06:13PM 39.6811 -103.7530 247° West 469 540 40,000  Level FlightAware ADS-B
06:13PM 39.6555 -103.8300 247° West 466 536 40,000  Level FlightAware ADS-B
06:14PM 39.6290 -103.9100 247° West 466 536 40,000  Level FlightAware ADS-B
06:14PM 39.6031 -103.9880 247° West 465 535 40,000  Level FlightAware ADS-B
06:15PM 39.5777 -104.0640 247° West 463 533 40,000  Level FlightAware ADS-B
06:15PM 39.5520 -104.1410 247° West 460 529 40,000  Level FlightAware ADS-B
06:16PM 39.5264 -104.2170 246° West 460 529 40,000  Level FlightAware ADS-B
06:16PM 39.5011 -104.2930 247° West 459 528 40,000  Level FlightAware ADS-B
06:17PM 39.4757 -104.3680 246° West 457 526 40,000  Level FlightAware ADS-B
06:17PM 39.4499 -104.4440 246° West 456 525 40,000  Level FlightAware ADS-B
06:18PM 39.4243 -104.5200 246° West 456 525 40,000  Level FlightAware ADS-B
06:18PM 39.3983 -104.5960 246° West 456 525 40,000  Level FlightAware ADS-B
06:19PM 39.3722 -104.6730 246° West 456 525 40,000  Level FlightAware ADS-B
06:19PM 39.3463 -104.7490 246° West 458 527 40,000  Level FlightAware ADS-B
06:20PM 39.3180 -104.8320 246° West 458 527 40,000  Level FlightAware ADS-B
06:20PM 39.2920 -104.9070 246° West 459 528 40,000  Level FlightAware ADS-B
06:21PM 39.2661 -104.9820 246° West 458 527 40,000  Level FlightAware ADS-B
06:21PM 39.2395 -105.0590 246° West 459 528 40,000  Level FlightAware ADS-B
06:22PM 39.2133 -105.1350 246° West 458 527 40,000  Level FlightAware ADS-B
06:22PM 39.1872 -105.2100 246° West 459 528 40,000  Level FlightAware ADS-B
06:23PM 39.1610 -105.2860 246° West 459 528 40,000  Level FlightAware ADS-B
06:23PM 39.1346 -105.3610 246° West 460 529 40,000  Level FlightAware ADS-B
06:24PM 39.1057 -105.4430 246° West 454 522 40,000  Level FlightAware ADS-B
06:24PM 39.0802 -105.5160 246° West 445 512 40,000  Level FlightAware ADS-B
06:25PM 39.0536 -105.5920 246° West 445 512 40,000  Level FlightAware ADS-B
06:25PM 39.0241 -105.6760 246° West 444 511 40,000  Level FlightAware ADS-B
06:26PM 38.9980 -105.7500 246° West 447 514 40,000  Level FlightAware ADS-B
06:27PM 38.9710 -105.8260 245° Southwest 447 514 40,000  Level FlightAware ADS-B
06:27PM 38.9436 -105.9030 245° Southwest 447 514 40,000  Level FlightAware ADS-B
06:28PM 38.9167 -105.9780 245° Southwest 447 514 40,000  Level FlightAware ADS-B
06:28PM 38.8828 -106.0730 245° Southwest 446 513 40,000  Level FlightAware ADS-B
06:29PM 38.8558 -106.1480 245° Southwest 447 514 40,000  Level FlightAware ADS-B
06:29PM 38.8397 -106.1940 246° West 446 513 40,000  Level FlightAware ADS-B
06:29PM 38.8273 -106.2350 249° West 442 509 40,000  Level FlightAware ADS-B
06:30PM 38.8197 -106.2640 251° West 440 506 40,000  Level FlightAware ADS-B
06:30PM 38.8032 -106.3430 255° West 434 499 40,000  Level FlightAware ADS-B
06:31PM 38.7889 -106.4180 256° West 436 502 40,000  Level FlightAware ADS-B
06:31PM 38.7709 -106.5130 256° West 436 502 40,000  Level FlightAware ADS-B
06:32PM 38.7568 -106.5890 257° West 435 501 40,000  Level FlightAware ADS-B
06:32PM 38.7400 -106.6800 257° West 435 501 40,000  Level FlightAware
06:33PM 38.7293 -106.7370 256° West 435 501 40,000  Level FlightAware ADS-B
06:33PM 38.7150 -106.8130 256° West 437 503 40,000  Level FlightAware ADS-B
06:34PM 38.7009 -106.8890 257° West 435 501 40,000  Level FlightAware ADS-B
06:35PM 38.6800 -106.9980 256° West 435 501 40,000  Level FlightAware
06:35PM 38.6713 -107.0460 257° West 435 501 40,000  Level FlightAware ADS-B
06:35PM 38.6570 -107.1210 256° West 435 501 40,000  Level FlightAware ADS-B
06:36PM 38.6426 -107.1970 256° West 435 501 40,000  Level FlightAware ADS-B
06:37PM 38.6190 -107.3220 256° West 434 499 40,000  Level FlightAware
06:37PM 38.6049 -107.3940 256° West 434 499 40,000  Level FlightAware ADS-B
06:38PM 38.5899 -107.4720 256° West 434 499 40,000  Level FlightAware ADS-B
06:41PM 38.4670 -107.9940 253° West 440 506 40,000  Level FlightAware
06:42PM 38.4370 -108.0740 244° Southwest 440 506 40,000  Level FlightAware
06:43PM 38.4060 -108.1530 243° Southwest 440 506 40,000  Level FlightAware
06:43PM 38.3760 -108.2320 244° Southwest 440 506 40,000  Level FlightAware
06:44PM 38.2790 -108.3820 231° Southwest 439 505 40,000  Level FlightAware
06:45PM 38.2390 -108.4650 238° Southwest 438 504 40,000  Level FlightAware
06:45PM 38.2030 -108.5410 239° Southwest 438 504 40,000  Level FlightAware
06:46PM 38.1610 -108.6270 238° Southwest 438 504 40,000  Level FlightAware
06:47PM 38.1250 -108.7010 238° Southwest 438 504 40,000  Level FlightAware
06:47PM 38.0880 -108.7750 238° Southwest 438 504 40,000  Level FlightAware
06:48PM 38.0430 -108.8680 238° Southwest 438 504 40,000  Level FlightAware
06:49PM 38.0060 -108.9420 238° Southwest 438 504 40,000  Level FlightAware
06:50PM 37.9700 -109.0160 238° Southwest 438 504 40,000  Level FlightAware
06:50PM 37.9330 -109.0900 238° Southwest 438 504 40,000  Level FlightAware
06:51PM 37.8970 -109.1640 238° Southwest 438 504 40,000  Level FlightAware
06:52PM 37.8510 -109.2570 238° Southwest 438 504 40,000  Level FlightAware
06:52PM 37.8140 -109.3310 238° Southwest 438 504 40,000  Level FlightAware
06:53PM 37.7780 -109.4050 238° Southwest 438 504 40,000  Level FlightAware
06:54PM 37.7410 -109.4790 238° Southwest 438 504 40,000  Level FlightAware
06:54PM 37.7050 -109.5520 238° Southwest 438 504 40,000  Level FlightAware
06:55PM 37.6590 -109.6450 238° Southwest 438 504 40,000  Level FlightAware
06:56PM 37.5581 -109.8733 238° Southwest 437 503 40,000  Level Los Angeles Center
06:56PM 37.5089 -109.9647 236° Southwest 436 502 40,000  Level Denver Center
06:57PM 37.4475 -110.0875 238° Southwest 436 502 40,000  Level Denver Center
07:03PM 37.0830 -110.8080 238° Southwest 440 506 40,000  Level FlightAware
07:03PM 37.0340 -110.9040 237° Southwest 440 506 40,000  Level FlightAware
07:04PM 36.9900 -110.9890 237° Southwest 440 506 40,000  Level FlightAware
07:05PM 36.9390 -111.0870 237° Southwest 436 502 40,000  Level FlightAware
07:06PM 36.8970 -111.1690 237° Southwest 430 495 40,000  Level FlightAware
07:06PM 36.8540 -111.2530 237° Southwest 427 491 40,000  Level FlightAware
07:07PM 36.8060 -111.3440 237° Southwest 426 490 40,000  Level FlightAware
07:08PM 36.7630 -111.4270 237° Southwest 424 488 40,000  Level FlightAware
07:08PM 36.7150 -111.5200 237° Southwest 422 486 40,000  Level FlightAware
07:09PM 36.6720 -111.6010 237° Southwest 421 484 40,000  Level FlightAware
07:10PM 36.6290 -111.6830 237° Southwest 420 483 40,000  Level FlightAware
07:10PM 36.5820 -111.7730 237° Southwest 421 484 40,000  Level FlightAware
07:11PM 36.5390 -111.8540 237° Southwest 420 483 40,000  Level FlightAware
07:12PM 36.4980 -111.9320 237° Southwest 421 484 40,000  Level FlightAware
07:13PM 36.4480 -112.0260 237° Southwest 419 482 40,000  Level FlightAware
07:13PM 36.4060 -112.1050 237° Southwest 418 481 40,000  Level FlightAware
07:14PM 36.3630 -112.1870 237° Southwest 419 482 40,000  Level FlightAware
07:15PM 36.3150 -112.2760 236° Southwest 420 483 40,000  Level FlightAware
07:15PM 36.2730 -112.3540 236° Southwest 420 483 40,000  Level FlightAware
07:16PM 36.2240 -112.4470 237° Southwest 421 484 40,000  Level FlightAware
07:17PM 36.1800 -112.5270 236° Southwest 422 486 40,000  Level FlightAware
07:17PM 36.1370 -112.6080 237° Southwest 422 486 40,000  Level FlightAware
07:18PM 36.0900 -112.6950 236° Southwest 424 488 40,000  Level FlightAware
07:19PM 36.0470 -112.7750 236° Southwest 423 487 40,000  Level FlightAware
07:20PM 35.9960 -112.8680 236° Southwest 423 487 40,000  Level FlightAware
07:20PM 35.9520 -112.9490 236° Southwest 422 486 40,000  Level FlightAware
07:21PM 35.9090 -113.0290 236° Southwest 422 486 40,000  Level FlightAware
07:22PM 35.8610 -113.1160 236° Southwest 422 486 40,000  Level FlightAware
07:22PM 35.8160 -113.1970 236° Southwest 422 486 40,000  Level FlightAware
07:23PM 35.7660 -113.2880 236° Southwest 422 486 40,000  Level FlightAware
07:24PM 35.7240 -113.3650 236° Southwest 422 486 40,000  Level FlightAware
07:24PM 35.6750 -113.4540 236° Southwest 424 488 40,000  Level FlightAware
07:25PM 35.6320 -113.5330 236° Southwest 422 486 40,000  Level FlightAware
07:26PM 35.5960 -113.6160 242° Southwest 420 483 40,000  Level FlightAware
07:27PM 35.5560 -113.7150 244° Southwest 420 483 40,000  Level FlightAware
07:27PM 35.5210 -113.8010 243° Southwest 420 483 40,000  Level FlightAware
07:28PM 35.4820 -113.8960 243° Southwest 419 482 40,000  Level FlightAware
07:29PM 35.4500 -113.9760 244° Southwest 420 483 40,000  Level FlightAware
07:29PM 35.4130 -114.0660 243° Southwest 419 482 40,000  Level FlightAware
07:30PM 35.3880 -114.1260 243° Southwest 419 482 40,000  Level FlightAware
07:30PM 35.3530 -114.2120 244° Southwest 419 482 40,000  Level FlightAware
07:31PM 35.3130 -114.3090 243° Southwest 418 481 40,000  Level FlightAware
07:32PM 35.2780 -114.3930 243° Southwest 417 480 40,000  Level FlightAware
07:33PM 35.2400 -114.4860 243° Southwest 416 479 40,000  Level FlightAware
07:33PM 35.2040 -114.5730 243° Southwest 415 478 40,000  Level FlightAware
07:34PM 35.1700 -114.6550 243° Southwest 413 475 40,000  Level FlightAware
07:35PM 35.1310 -114.7470 243° Southwest 416 479 40,000  Level FlightAware
07:35PM 35.0960 -114.8310 243° Southwest 418 481 40,000  Level FlightAware
07:36PM 35.0610 -114.9150 243° Southwest 419 482 40,000  Level FlightAware
07:37PM 35.0200 -115.0100 242° Southwest 420 483 40,000  Level FlightAware
07:37PM 34.9840 -115.0960 243° Southwest 420 483 40,000  Level FlightAware
07:38PM 34.9470 -115.1850 243° Southwest 421 484 40,000  Level FlightAware
07:39PM 34.9090 -115.2740 243° Southwest 422 486 40,000 -240 Level FlightAware
07:40PM 34.8600 -115.3880 242° Southwest 426 490 39,700 -600 Descending FlightAware
07:41PM 34.8180 -115.4870 243° Southwest 415 478 39,000 -900 Descending FlightAware
07:41PM 34.7780 -115.5800 242° Southwest 410 472 38,400 -780 Descending FlightAware
07:42PM 34.7440 -115.6600 243° Southwest 405 466 37,900 -480 Descending FlightAware
07:43PM 34.7090 -115.7420 243° Southwest 404 465 37,800 -720 Descending FlightAware
07:43PM 34.6730 -115.8240 242° Southwest 406 467 36,900 -1,140 Descending FlightAware
07:44PM 34.6370 -115.9080 243° Southwest 408 470 36,300 -900 Descending FlightAware
07:45PM 34.5950 -116.0050 242° Southwest 416 479 35,700 -780 Descending FlightAware
07:45PM 34.5590 -116.0870 242° Southwest 425 489 35,200 -900 Descending FlightAware
07:46PM 34.5180 -116.1830 243° Southwest 429 494 34,500 -1,140 Descending FlightAware
07:47PM 34.4830 -116.2630 242° Southwest 427 491 33,600 -1,920 Descending FlightAware
07:48PM 34.4440 -116.3520 242° Southwest 426 490 32,000 -2,220 Descending FlightAware
07:48PM 34.4020 -116.4470 242° Southwest 415 478 30,500 -1,980 Descending FlightAware
07:49PM 34.3660 -116.5280 242° Southwest 406 467 29,200 -1,860 Descending FlightAware
07:50PM 34.3290 -116.6130 242° Southwest 397 457 27,900 -1,980 Descending FlightAware
07:50PM 34.2940 -116.6930 242° Southwest 391 450 26,400 -2,100 Descending FlightAware
07:51PM 34.2600 -116.7680 241° Southwest 388 447 25,100 -2,100 Descending FlightAware
07:52PM 34.2200 -116.8590 242° Southwest 407 468 23,500 -2,220 Descending FlightAware
07:52PM 34.1840 -116.9390 241° Southwest 403 464 22,000 -2,220 Descending FlightAware
07:53PM 34.1460 -117.0250 242° Southwest 397 457 20,400 -2,100 Descending FlightAware
07:54PM 34.1110 -117.1040 242° Southwest 396 456 19,100 -2,040 Descending FlightAware
07:55PM 34.0770 -117.1790 241° Southwest 391 450 17,700 -2,220 Descending FlightAware
07:55PM 34.0460 -117.2720 248° West 380 437 16,000 -1,800 Descending FlightAware
07:56PM 34.0380 -117.3520 263° West 358 412 15,200 -960 Descending FlightAware
07:57PM 34.0300 -117.4380 264° West 328 377 14,700 -780 Descending FlightAware
07:57PM 34.0240 -117.5090 264° West 308 354 14,100 -1,140 Descending FlightAware
07:58PM 34.0170 -117.5770 263° West 303 349 13,200 -1,380 Descending FlightAware
07:59PM 34.0100 -117.6490 263° West 299 344 12,200 -1,440 Descending FlightAware
07:59PM 34.0030 -117.7160 263° West 295 339 11,200 -1,500 Descending FlightAware
08:00PM 33.9970 -117.7900 264° West 290 334 10,100 -1,320 Descending FlightAware
08:01PM 33.9930 -117.8280 263° West 270 311 9,700 -1,320 Descending FlightAware
08:01PM 33.9890 -117.8710 264° West 263 303 8,900 -1,320 Descending FlightAware
08:02PM 33.9850 -117.9080 263° West 249 287 8,500 -1,020 Descending FlightAware
08:02PM 33.9810 -117.9480 263° West 237 273 8,000 -1,320 Descending FlightAware
08:03PM 33.9770 -117.9890 263° West 241 277 7,200 -1,560 Descending FlightAware
08:03PM 33.9740 -118.0210 264° West 240 276 6,600 -1,320 Descending FlightAware
08:03PM 33.9700 -118.0610 263° West 235 270 6,000 -1,020 Descending FlightAware
08:04PM 33.9670 -118.0920 263° West 221 254 5,700 -660 Descending FlightAware
08:04PM 33.9630 -118.1280 262° West 203 234 5,400 -780 Descending FlightAware
08:05PM 33.9600 -118.1540 262° West 194 223 5,000 -1,200 Descending FlightAware
08:05PM 33.9570 -118.1860 264° West 190 219 4,300 -1,500 Descending FlightAware
08:06PM 33.9540 -118.2180 264° West 187 215 3,500 -1,440 Descending FlightAware
08:06PM 33.9520 -118.2370 263° West 180 207 3,100 -1,200 Descending FlightAware
08:07PM 33.9490 -118.2610 261° West 170 196 2,600 -840 Descending FlightAware
08:10PM 33.9360 -118.3960 263° West 128 147 300 -780 Descending FlightAware